sensor_id;sensor_type;location;lat;lon;timestamp;P1;durP1;ratioP1;P2;durP2;ratioP2
16731;SDS011;8484;50.904;9.192;2022-11-04T00:02:22;3.87;;;2.00;;
16731;SDS011;8484;50.904;9.192;2022-11-04T00:05:08;2.20;;;2.00;;
16731;SDS011;8484;50.904;9.192;2022-11-04T00:07:53;2.47;;;2.20;;
16731;SDS011;8484;50.904;9.192;2022-11-04T00:10:58;3.80;;;2.30;;
16731;SDS011;8484;50.904;9.192;2022-11-04T00:14:03;2.23;;;2.03;;
16731;SDS011;8484;50.904;9.192;2022-11-04T00:16:49;2.50;;;2.30;;
16731;SDS011;8484;50.904;9.192;2022-11-04T00:19:53;2.83;;;2.50;;
16731;SDS011;8484;50.904;9.192;2022-11-04T00:22:56;2.87;;;2.63;;
16731;SDS011;8484;50.904;9.192;2022-11-04T00:26:01;3.20;;;2.90;;
16731;SDS011;8484;50.904;9.192;2022-11-04T00:29:04;3.57;;;2.97;;
16731;SDS011;8484;50.904;9.192;2022-11-04T00:31:49;2.90;;;2.70;;
16731;SDS011;8484;50.904;9.192;2022-11-04T00:34:51;5.13;;;2.70;;
16731;SDS011;8484;50.904;9.192;2022-11-04T00:37:37;4.27;;;3.30;;
16731;SDS011;8484;50.904;9.192;2022-11-04T00:40:23;4.00;;;3.10;;
16731;SDS011;8484;50.904;9.192;2022-11-04T00:43:10;3.67;;;3.20;;
16731;SDS011;8484;50.904;9.192;2022-11-04T00:45:55;3.83;;;3.30;;
16731;SDS011;8484;50.904;9.192;2022-11-04T00:48:41;3.67;;;3.00;;
16731;SDS011;8484;50.904;9.192;2022-11-04T00:51:26;3.43;;;3.13;;
16731;SDS011;8484;50.904;9.192;2022-11-04T00:54:12;3.37;;;3.07;;
16731;SDS011;8484;50.904;9.192;2022-11-04T00:56:57;3.17;;;2.87;;
16731;SDS011;8484;50.904;9.192;2022-11-04T00:59:44;5.30;;;3.30;;
16731;SDS011;8484;50.904;9.192;2022-11-04T01:02:29;3.27;;;2.97;;
16731;SDS011;8484;50.904;9.192;2022-11-04T01:05:15;4.60;;;2.47;;
16731;SDS011;8484;50.904;9.192;2022-11-04T01:08:03;3.13;;;2.83;;
16731;SDS011;8484;50.904;9.192;2022-11-04T01:10:48;7.50;;;2.80;;
16731;SDS011;8484;50.904;9.192;2022-11-04T01:13:34;3.90;;;2.80;;
16731;SDS011;8484;50.904;9.192;2022-11-04T01:16:21;2.87;;;2.57;;
16731;SDS011;8484;50.904;9.192;2022-11-04T01:19:09;3.43;;;2.70;;
16731;SDS011;8484;50.904;9.192;2022-11-04T01:21:55;2.70;;;2.50;;
16731;SDS011;8484;50.904;9.192;2022-11-04T01:24:40;9.00;;;2.73;;
16731;SDS011;8484;50.904;9.192;2022-11-04T01:27:26;3.67;;;2.53;;
16731;SDS011;8484;50.904;9.192;2022-11-04T01:30:12;3.27;;;2.60;;
16731;SDS011;8484;50.904;9.192;2022-11-04T01:32:59;2.87;;;2.40;;
16731;SDS011;8484;50.904;9.192;2022-11-04T01:35:44;2.60;;;2.40;;
16731;SDS011;8484;50.904;9.192;2022-11-04T01:38:30;2.30;;;2.10;;
16731;SDS011;8484;50.904;9.192;2022-11-04T01:41:16;2.07;;;1.90;;
16731;SDS011;8484;50.904;9.192;2022-11-04T01:44:42;3.03;;;2.10;;
16731;SDS011;8484;50.904;9.192;2022-11-04T01:47:29;2.00;;;1.80;;
16731;SDS011;8484;50.904;9.192;2022-11-04T01:50:21;2.10;;;1.50;;
16731;SDS011;8484;50.904;9.192;2022-11-04T01:53:10;1.70;;;1.60;;
16731;SDS011;8484;50.904;9.192;2022-11-04T01:55:59;1.80;;;1.70;;
16731;SDS011;8484;50.904;9.192;2022-11-04T01:58:55;2.13;;;1.73;;
16731;SDS011;8484;50.904;9.192;2022-11-04T02:01:46;2.43;;;2.10;;
16731;SDS011;8484;50.904;9.192;2022-11-04T02:04:33;2.13;;;1.70;;
16731;SDS011;8484;50.904;9.192;2022-11-04T02:07:20;1.77;;;1.50;;
16731;SDS011;8484;50.904;9.192;2022-11-04T02:10:07;1.43;;;1.33;;
16731;SDS011;8484;50.904;9.192;2022-11-04T02:12:55;2.93;;;1.30;;
16731;SDS011;8484;50.904;9.192;2022-11-04T02:15:43;3.13;;;1.43;;
16731;SDS011;8484;50.904;9.192;2022-11-04T02:18:36;2.70;;;1.50;;
16731;SDS011;8484;50.904;9.192;2022-11-04T02:21:41;4.67;;;1.60;;
16731;SDS011;8484;50.904;9.192;2022-11-04T02:25:01;1.40;;;1.30;;
16731;SDS011;8484;50.904;9.192;2022-11-04T02:27:59;2.03;;;1.57;;
16731;SDS011;8484;50.904;9.192;2022-11-04T02:31:04;1.93;;;1.43;;
16731;SDS011;8484;50.904;9.192;2022-11-04T02:33:59;1.30;;;1.13;;
16731;SDS011;8484;50.904;9.192;2022-11-04T02:36:49;1.87;;;1.20;;
16731;SDS011;8484;50.904;9.192;2022-11-04T02:39:46;1.33;;;1.10;;
16731;SDS011;8484;50.904;9.192;2022-11-04T02:42:36;1.97;;;0.90;;
16731;SDS011;8484;50.904;9.192;2022-11-04T02:45:29;1.57;;;0.73;;
16731;SDS011;8484;50.904;9.192;2022-11-04T02:48:22;0.63;;;0.60;;
16731;SDS011;8484;50.904;9.192;2022-11-04T02:51:14;1.40;;;0.67;;
16731;SDS011;8484;50.904;9.192;2022-11-04T02:54:04;1.47;;;0.60;;
16731;SDS011;8484;50.904;9.192;2022-11-04T02:56:55;0.50;;;0.40;;
16731;SDS011;8484;50.904;9.192;2022-11-04T02:59:43;0.87;;;0.50;;
16731;SDS011;8484;50.904;9.192;2022-11-04T03:02:34;0.60;;;0.60;;
16731;SDS011;8484;50.904;9.192;2022-11-04T03:05:26;0.77;;;0.40;;
16731;SDS011;8484;50.904;9.192;2022-11-04T03:08:15;0.40;;;0.40;;
16731;SDS011;8484;50.904;9.192;2022-11-04T03:11:05;1.00;;;0.57;;
16731;SDS011;8484;50.904;9.192;2022-11-04T03:14:00;0.77;;;0.60;;
16731;SDS011;8484;50.904;9.192;2022-11-04T03:16:50;0.70;;;0.60;;
16731;SDS011;8484;50.904;9.192;2022-11-04T03:19:39;0.60;;;0.60;;
16731;SDS011;8484;50.904;9.192;2022-11-04T03:22:32;0.50;;;0.50;;
16731;SDS011;8484;50.904;9.192;2022-11-04T03:25:22;0.50;;;0.50;;
16731;SDS011;8484;50.904;9.192;2022-11-04T03:28:16;0.40;;;0.40;;
16731;SDS011;8484;50.904;9.192;2022-11-04T03:31:11;0.47;;;0.47;;
16731;SDS011;8484;50.904;9.192;2022-11-04T03:34:03;0.53;;;0.53;;
16731;SDS011;8484;50.904;9.192;2022-11-04T03:36:48;0.60;;;0.60;;
16731;SDS011;8484;50.904;9.192;2022-11-04T03:39:36;0.70;;;0.70;;
16731;SDS011;8484;50.904;9.192;2022-11-04T03:42:22;0.50;;;0.50;;
16731;SDS011;8484;50.904;9.192;2022-11-04T03:45:09;0.70;;;0.60;;
16731;SDS011;8484;50.904;9.192;2022-11-04T03:47:56;1.97;;;0.87;;
16731;SDS011;8484;50.904;9.192;2022-11-04T03:50:43;1.80;;;0.87;;
16731;SDS011;8484;50.904;9.192;2022-11-04T03:53:30;0.87;;;0.60;;
16731;SDS011;8484;50.904;9.192;2022-11-04T03:56:25;0.87;;;0.83;;
16731;SDS011;8484;50.904;9.192;2022-11-04T04:02:49;1.20;;;0.93;;
16731;SDS011;8484;50.904;9.192;2022-11-04T04:05:46;1.10;;;0.90;;
16731;SDS011;8484;50.904;9.192;2022-11-04T04:08:37;0.70;;;0.70;;
16731;SDS011;8484;50.904;9.192;2022-11-04T04:11:29;1.93;;;0.90;;
16731;SDS011;8484;50.904;9.192;2022-11-04T04:14:23;0.80;;;0.80;;
16731;SDS011;8484;50.904;9.192;2022-11-04T04:17:23;1.70;;;1.00;;
16731;SDS011;8484;50.904;9.192;2022-11-04T04:20:16;1.30;;;1.20;;
16731;SDS011;8484;50.904;9.192;2022-11-04T04:23:04;1.40;;;1.20;;
16731;SDS011;8484;50.904;9.192;2022-11-04T04:26:12;1.77;;;1.20;;
16731;SDS011;8484;50.904;9.192;2022-11-04T04:29:18;5.63;;;1.00;;
16731;SDS011;8484;50.904;9.192;2022-11-04T04:32:05;1.90;;;1.20;;
16731;SDS011;8484;50.904;9.192;2022-11-04T04:34:51;3.03;;;1.17;;
16731;SDS011;8484;50.904;9.192;2022-11-04T04:37:59;2.77;;;1.10;;
16731;SDS011;8484;50.904;9.192;2022-11-04T04:41:02;1.20;;;0.70;;
16731;SDS011;8484;50.904;9.192;2022-11-04T04:44:11;0.60;;;0.60;;
16731;SDS011;8484;50.904;9.192;2022-11-04T04:47:18;0.60;;;0.50;;
16731;SDS011;8484;50.904;9.192;2022-11-04T04:50:07;0.80;;;0.70;;
16731;SDS011;8484;50.904;9.192;2022-11-04T04:52:54;0.40;;;0.40;;
16731;SDS011;8484;50.904;9.192;2022-11-04T04:55:42;0.50;;;0.50;;
16731;SDS011;8484;50.904;9.192;2022-11-04T04:58:28;0.50;;;0.50;;
16731;SDS011;8484;50.904;9.192;2022-11-04T05:01:13;0.40;;;0.40;;
16731;SDS011;8484;50.904;9.192;2022-11-04T05:04:00;0.40;;;0.40;;
16731;SDS011;8484;50.904;9.192;2022-11-04T05:06:46;0.97;;;0.60;;
16731;SDS011;8484;50.904;9.192;2022-11-04T05:09:32;0.50;;;0.50;;
16731;SDS011;8484;50.904;9.192;2022-11-04T05:12:17;0.67;;;0.53;;
16731;SDS011;8484;50.904;9.192;2022-11-04T05:15:03;0.90;;;0.47;;
16731;SDS011;8484;50.904;9.192;2022-11-04T05:17:52;0.50;;;0.50;;
16731;SDS011;8484;50.904;9.192;2022-11-04T05:20:39;0.40;;;0.40;;
16731;SDS011;8484;50.904;9.192;2022-11-04T05:23:25;1.07;;;0.50;;
16731;SDS011;8484;50.904;9.192;2022-11-04T05:26:10;0.60;;;0.60;;
16731;SDS011;8484;50.904;9.192;2022-11-04T05:28:57;1.13;;;0.80;;
16731;SDS011;8484;50.904;9.192;2022-11-04T05:31:42;1.47;;;0.60;;
16731;SDS011;8484;50.904;9.192;2022-11-04T05:34:28;0.63;;;0.53;;
16731;SDS011;8484;50.904;9.192;2022-11-04T05:37:15;1.90;;;0.60;;
16731;SDS011;8484;50.904;9.192;2022-11-04T05:40:01;0.60;;;0.60;;
16731;SDS011;8484;50.904;9.192;2022-11-04T05:42:47;0.67;;;0.67;;
16731;SDS011;8484;50.904;9.192;2022-11-04T05:45:32;0.50;;;0.50;;
16731;SDS011;8484;50.904;9.192;2022-11-04T05:48:18;1.27;;;0.60;;
16731;SDS011;8484;50.904;9.192;2022-11-04T05:51:03;0.60;;;0.60;;
16731;SDS011;8484;50.904;9.192;2022-11-04T05:53:50;0.97;;;0.70;;
16731;SDS011;8484;50.904;9.192;2022-11-04T05:56:36;1.30;;;0.60;;
16731;SDS011;8484;50.904;9.192;2022-11-04T05:59:21;0.57;;;0.57;;
16731;SDS011;8484;50.904;9.192;2022-11-04T06:02:07;0.73;;;0.63;;
16731;SDS011;8484;50.904;9.192;2022-11-04T06:04:52;0.87;;;0.73;;
16731;SDS011;8484;50.904;9.192;2022-11-04T06:07:38;0.60;;;0.60;;
16731;SDS011;8484;50.904;9.192;2022-11-04T06:10:25;0.87;;;0.70;;
16731;SDS011;8484;50.904;9.192;2022-11-04T06:13:10;1.00;;;0.90;;
16731;SDS011;8484;50.904;9.192;2022-11-04T06:15:56;0.80;;;0.63;;
16731;SDS011;8484;50.904;9.192;2022-11-04T06:18:42;1.33;;;0.80;;
16731;SDS011;8484;50.904;9.192;2022-11-04T06:21:28;1.17;;;0.70;;
16731;SDS011;8484;50.904;9.192;2022-11-04T06:24:14;1.50;;;0.70;;
16731;SDS011;8484;50.904;9.192;2022-11-04T06:27:12;1.70;;;0.77;;
16731;SDS011;8484;50.904;9.192;2022-11-04T06:29:58;0.93;;;0.70;;
16731;SDS011;8484;50.904;9.192;2022-11-04T06:32:44;1.77;;;0.77;;
16731;SDS011;8484;50.904;9.192;2022-11-04T06:35:29;1.17;;;0.63;;
16731;SDS011;8484;50.904;9.192;2022-11-04T06:38:15;3.20;;;0.70;;
16731;SDS011;8484;50.904;9.192;2022-11-04T06:41:01;1.57;;;0.83;;
16731;SDS011;8484;50.904;9.192;2022-11-04T06:43:49;2.20;;;0.97;;
16731;SDS011;8484;50.904;9.192;2022-11-04T06:46:35;1.47;;;0.80;;
16731;SDS011;8484;50.904;9.192;2022-11-04T06:49:21;1.80;;;0.70;;
16731;SDS011;8484;50.904;9.192;2022-11-04T06:52:07;0.63;;;0.50;;
16731;SDS011;8484;50.904;9.192;2022-11-04T06:54:52;2.10;;;0.80;;
16731;SDS011;8484;50.904;9.192;2022-11-04T06:57:38;1.87;;;0.87;;
16731;SDS011;8484;50.904;9.192;2022-11-04T07:00:25;1.90;;;0.80;;
16731;SDS011;8484;50.904;9.192;2022-11-04T07:03:10;1.07;;;0.60;;
16731;SDS011;8484;50.904;9.192;2022-11-04T07:05:56;2.30;;;0.70;;
16731;SDS011;8484;50.904;9.192;2022-11-04T07:08:41;2.67;;;0.70;;
16731;SDS011;8484;50.904;9.192;2022-11-04T07:11:30;1.53;;;0.60;;
16731;SDS011;8484;50.904;9.192;2022-11-04T07:14:16;3.80;;;0.67;;
16731;SDS011;8484;50.904;9.192;2022-11-04T07:17:03;2.50;;;0.80;;
16731;SDS011;8484;50.904;9.192;2022-11-04T07:19:49;2.20;;;1.07;;
16731;SDS011;8484;50.904;9.192;2022-11-04T07:22:35;5.60;;;0.70;;
16731;SDS011;8484;50.904;9.192;2022-11-04T07:25:20;2.73;;;0.93;;
16731;SDS011;8484;50.904;9.192;2022-11-04T07:28:05;2.83;;;0.77;;
16731;SDS011;8484;50.904;9.192;2022-11-04T07:30:53;2.10;;;1.07;;
16731;SDS011;8484;50.904;9.192;2022-11-04T07:33:40;0.70;;;0.53;;
16731;SDS011;8484;50.904;9.192;2022-11-04T07:36:26;2.30;;;0.80;;
16731;SDS011;8484;50.904;9.192;2022-11-04T07:39:11;2.43;;;0.77;;
16731;SDS011;8484;50.904;9.192;2022-11-04T07:41:57;3.13;;;0.80;;
16731;SDS011;8484;50.904;9.192;2022-11-04T07:44:42;2.67;;;0.87;;
16731;SDS011;8484;50.904;9.192;2022-11-04T07:47:28;3.23;;;0.70;;
16731;SDS011;8484;50.904;9.192;2022-11-04T07:50:15;1.90;;;0.77;;
16731;SDS011;8484;50.904;9.192;2022-11-04T07:53:03;2.97;;;0.60;;
16731;SDS011;8484;50.904;9.192;2022-11-04T07:55:48;2.40;;;0.70;;
16731;SDS011;8484;50.904;9.192;2022-11-04T07:58:34;1.63;;;0.73;;
16731;SDS011;8484;50.904;9.192;2022-11-04T08:01:20;2.27;;;0.90;;
16731;SDS011;8484;50.904;9.192;2022-11-04T08:04:07;1.20;;;0.70;;
16731;SDS011;8484;50.904;9.192;2022-11-04T08:06:55;1.97;;;0.77;;
16731;SDS011;8484;50.904;9.192;2022-11-04T08:09:41;2.73;;;0.83;;
16731;SDS011;8484;50.904;9.192;2022-11-04T08:12:26;1.37;;;0.70;;
16731;SDS011;8484;50.904;9.192;2022-11-04T08:15:12;3.97;;;0.77;;
16731;SDS011;8484;50.904;9.192;2022-11-04T08:17:57;2.07;;;0.70;;
16731;SDS011;8484;50.904;9.192;2022-11-04T08:20:46;0.80;;;0.57;;
16731;SDS011;8484;50.904;9.192;2022-11-04T08:23:34;0.50;;;0.50;;
16731;SDS011;8484;50.904;9.192;2022-11-04T08:26:20;1.50;;;0.60;;
16731;SDS011;8484;50.904;9.192;2022-11-04T08:29:06;1.00;;;0.60;;
16731;SDS011;8484;50.904;9.192;2022-11-04T08:31:52;1.80;;;0.67;;
16731;SDS011;8484;50.904;9.192;2022-11-04T08:34:37;4.70;;;0.93;;
16731;SDS011;8484;50.904;9.192;2022-11-04T08:37:24;1.13;;;0.80;;
16731;SDS011;8484;50.904;9.192;2022-11-04T08:40:12;3.20;;;1.00;;
16731;SDS011;8484;50.904;9.192;2022-11-04T08:42:57;4.27;;;0.90;;
16731;SDS011;8484;50.904;9.192;2022-11-04T08:45:43;2.30;;;1.30;;
16731;SDS011;8484;50.904;9.192;2022-11-04T08:48:29;2.30;;;1.13;;
16731;SDS011;8484;50.904;9.192;2022-11-04T08:51:16;1.70;;;0.90;;
16731;SDS011;8484;50.904;9.192;2022-11-04T08:54:04;2.13;;;0.80;;
16731;SDS011;8484;50.904;9.192;2022-11-04T08:56:51;2.63;;;0.83;;
16731;SDS011;8484;50.904;9.192;2022-11-04T08:59:36;1.67;;;0.63;;
16731;SDS011;8484;50.904;9.192;2022-11-04T09:02:21;2.00;;;0.57;;
16731;SDS011;8484;50.904;9.192;2022-11-04T09:05:07;2.13;;;0.60;;
16731;SDS011;8484;50.904;9.192;2022-11-04T09:07:53;1.43;;;0.73;;
16731;SDS011;8484;50.904;9.192;2022-11-04T09:10:39;0.93;;;0.70;;
16731;SDS011;8484;50.904;9.192;2022-11-04T09:13:27;2.57;;;1.10;;
16731;SDS011;8484;50.904;9.192;2022-11-04T09:16:13;1.57;;;0.70;;
16731;SDS011;8484;50.904;9.192;2022-11-04T09:18:59;1.03;;;0.70;;
16731;SDS011;8484;50.904;9.192;2022-11-04T09:21:45;1.37;;;0.80;;
16731;SDS011;8484;50.904;9.192;2022-11-04T09:24:31;1.33;;;0.73;;
16731;SDS011;8484;50.904;9.192;2022-11-04T09:27:16;1.30;;;0.80;;
16731;SDS011;8484;50.904;9.192;2022-11-04T09:30:03;0.53;;;0.50;;
16731;SDS011;8484;50.904;9.192;2022-11-04T09:32:50;1.60;;;0.70;;
16731;SDS011;8484;50.904;9.192;2022-11-04T09:35:36;1.37;;;0.60;;
16731;SDS011;8484;50.904;9.192;2022-11-04T09:38:21;1.87;;;0.80;;
16731;SDS011;8484;50.904;9.192;2022-11-04T09:41:07;0.87;;;0.67;;
16731;SDS011;8484;50.904;9.192;2022-11-04T09:44:09;2.03;;;0.93;;
16731;SDS011;8484;50.904;9.192;2022-11-04T09:47:07;1.50;;;0.60;;
16731;SDS011;8484;50.904;9.192;2022-11-04T09:49:57;3.07;;;1.00;;
16731;SDS011;8484;50.904;9.192;2022-11-04T09:52:45;1.73;;;0.73;;
16731;SDS011;8484;50.904;9.192;2022-11-04T09:55:37;1.27;;;0.70;;
16731;SDS011;8484;50.904;9.192;2022-11-04T09:58:25;2.43;;;0.80;;
16731;SDS011;8484;50.904;9.192;2022-11-04T10:01:20;1.27;;;0.80;;
16731;SDS011;8484;50.904;9.192;2022-11-04T10:04:16;3.40;;;0.93;;
16731;SDS011;8484;50.904;9.192;2022-11-04T10:07:12;1.10;;;0.53;;
16731;SDS011;8484;50.904;9.192;2022-11-04T10:10:09;1.53;;;0.60;;
16731;SDS011;8484;50.904;9.192;2022-11-04T10:13:04;1.17;;;0.60;;
16731;SDS011;8484;50.904;9.192;2022-11-04T10:16:11;2.10;;;1.20;;
16731;SDS011;8484;50.904;9.192;2022-11-04T10:19:26;3.43;;;0.90;;
16731;SDS011;8484;50.904;9.192;2022-11-04T10:22:22;3.93;;;0.97;;
16731;SDS011;8484;50.904;9.192;2022-11-04T10:25:12;1.83;;;0.60;;
16731;SDS011;8484;50.904;9.192;2022-11-04T10:27:59;3.40;;;0.83;;
16731;SDS011;8484;50.904;9.192;2022-11-04T10:30:47;1.23;;;0.50;;
16731;SDS011;8484;50.904;9.192;2022-11-04T10:33:36;3.17;;;1.00;;
16731;SDS011;8484;50.904;9.192;2022-11-04T10:36:26;3.37;;;0.80;;
16731;SDS011;8484;50.904;9.192;2022-11-04T10:39:14;6.77;;;1.23;;
16731;SDS011;8484;50.904;9.192;2022-11-04T10:42:10;4.40;;;0.97;;
16731;SDS011;8484;50.904;9.192;2022-11-04T10:44:57;2.53;;;0.87;;
16731;SDS011;8484;50.904;9.192;2022-11-04T10:47:44;1.27;;;0.60;;
16731;SDS011;8484;50.904;9.192;2022-11-04T10:50:33;2.63;;;0.80;;
16731;SDS011;8484;50.904;9.192;2022-11-04T10:53:25;4.07;;;0.97;;
16731;SDS011;8484;50.904;9.192;2022-11-04T10:56:14;3.23;;;1.07;;
16731;SDS011;8484;50.904;9.192;2022-11-04T10:59:11;2.60;;;0.73;;
16731;SDS011;8484;50.904;9.192;2022-11-04T11:02:03;2.57;;;0.90;;
16731;SDS011;8484;50.904;9.192;2022-11-04T11:04:48;2.50;;;0.80;;
16731;SDS011;8484;50.904;9.192;2022-11-04T11:07:35;2.07;;;0.77;;
16731;SDS011;8484;50.904;9.192;2022-11-04T11:10:23;4.03;;;0.87;;
16731;SDS011;8484;50.904;9.192;2022-11-04T11:13:22;1.83;;;0.70;;
16731;SDS011;8484;50.904;9.192;2022-11-04T11:16:10;2.93;;;0.87;;
16731;SDS011;8484;50.904;9.192;2022-11-04T11:19:06;1.23;;;0.73;;
16731;SDS011;8484;50.904;9.192;2022-11-04T11:21:57;2.47;;;0.90;;
16731;SDS011;8484;50.904;9.192;2022-11-04T11:24:42;2.07;;;0.80;;
16731;SDS011;8484;50.904;9.192;2022-11-04T11:27:29;1.50;;;0.70;;
16731;SDS011;8484;50.904;9.192;2022-11-04T11:30:18;2.73;;;0.80;;
16731;SDS011;8484;50.904;9.192;2022-11-04T11:33:05;2.23;;;0.90;;
16731;SDS011;8484;50.904;9.192;2022-11-04T11:36:01;3.03;;;0.90;;
16731;SDS011;8484;50.904;9.192;2022-11-04T11:38:56;1.97;;;0.90;;
16731;SDS011;8484;50.904;9.192;2022-11-04T11:41:49;2.43;;;0.87;;
16731;SDS011;8484;50.904;9.192;2022-11-04T11:44:40;4.57;;;1.00;;
16731;SDS011;8484;50.904;9.192;2022-11-04T11:47:33;3.90;;;1.17;;
16731;SDS011;8484;50.904;9.192;2022-11-04T11:50:25;3.23;;;1.10;;
16731;SDS011;8484;50.904;9.192;2022-11-04T11:53:16;4.33;;;1.20;;
16731;SDS011;8484;50.904;9.192;2022-11-04T11:56:09;2.67;;;1.40;;
16731;SDS011;8484;50.904;9.192;2022-11-04T11:59:10;2.40;;;1.23;;
16731;SDS011;8484;50.904;9.192;2022-11-04T12:02:10;5.47;;;1.30;;
16731;SDS011;8484;50.904;9.192;2022-11-04T12:05:07;4.80;;;1.80;;
16731;SDS011;8484;50.904;9.192;2022-11-04T12:07:55;6.20;;;1.43;;
16731;SDS011;8484;50.904;9.192;2022-11-04T12:10:49;3.73;;;1.10;;
16731;SDS011;8484;50.904;9.192;2022-11-04T12:13:41;1.87;;;1.00;;
16731;SDS011;8484;50.904;9.192;2022-11-04T12:16:32;1.53;;;0.90;;
16731;SDS011;8484;50.904;9.192;2022-11-04T12:19:31;1.80;;;0.77;;
16731;SDS011;8484;50.904;9.192;2022-11-04T12:22:28;3.77;;;1.20;;
16731;SDS011;8484;50.904;9.192;2022-11-04T12:25:21;1.73;;;0.77;;
16731;SDS011;8484;50.904;9.192;2022-11-04T12:28:16;2.00;;;0.80;;
16731;SDS011;8484;50.904;9.192;2022-11-04T12:31:13;1.43;;;0.70;;
16731;SDS011;8484;50.904;9.192;2022-11-04T12:34:07;2.47;;;0.83;;
16731;SDS011;8484;50.904;9.192;2022-11-04T12:37:06;3.67;;;0.90;;
16731;SDS011;8484;50.904;9.192;2022-11-04T12:40:10;2.20;;;0.70;;
16731;SDS011;8484;50.904;9.192;2022-11-04T12:43:03;1.57;;;0.60;;
16731;SDS011;8484;50.904;9.192;2022-11-04T12:46:03;2.20;;;0.80;;
16731;SDS011;8484;50.904;9.192;2022-11-04T12:49:09;2.00;;;1.10;;
16731;SDS011;8484;50.904;9.192;2022-11-04T12:52:10;3.40;;;1.13;;
16731;SDS011;8484;50.904;9.192;2022-11-04T12:55:13;1.83;;;0.93;;
16731;SDS011;8484;50.904;9.192;2022-11-04T12:58:12;2.83;;;0.80;;
16731;SDS011;8484;50.904;9.192;2022-11-04T13:01:05;2.27;;;1.03;;
16731;SDS011;8484;50.904;9.192;2022-11-04T13:03:54;1.60;;;0.90;;
16731;SDS011;8484;50.904;9.192;2022-11-04T13:06:46;2.37;;;0.90;;
16731;SDS011;8484;50.904;9.192;2022-11-04T13:09:38;1.67;;;0.70;;
16731;SDS011;8484;50.904;9.192;2022-11-04T13:12:29;3.47;;;0.90;;
16731;SDS011;8484;50.904;9.192;2022-11-04T13:15:19;1.30;;;0.67;;
16731;SDS011;8484;50.904;9.192;2022-11-04T13:18:08;2.63;;;1.00;;
16731;SDS011;8484;50.904;9.192;2022-11-04T13:21:01;1.57;;;0.70;;
16731;SDS011;8484;50.904;9.192;2022-11-04T13:23:51;1.67;;;0.80;;
16731;SDS011;8484;50.904;9.192;2022-11-04T13:26:41;1.87;;;0.70;;
16731;SDS011;8484;50.904;9.192;2022-11-04T13:29:27;2.27;;;0.97;;
16731;SDS011;8484;50.904;9.192;2022-11-04T13:32:19;1.57;;;0.70;;
16731;SDS011;8484;50.904;9.192;2022-11-04T13:35:15;4.03;;;0.90;;
16731;SDS011;8484;50.904;9.192;2022-11-04T13:38:06;2.67;;;0.77;;
16731;SDS011;8484;50.904;9.192;2022-11-04T13:40:58;4.77;;;1.17;;
16731;SDS011;8484;50.904;9.192;2022-11-04T13:43:58;1.83;;;0.67;;
16731;SDS011;8484;50.904;9.192;2022-11-04T13:46:47;2.37;;;0.90;;
16731;SDS011;8484;50.904;9.192;2022-11-04T13:49:35;2.53;;;1.03;;
16731;SDS011;8484;50.904;9.192;2022-11-04T13:52:20;1.97;;;0.73;;
16731;SDS011;8484;50.904;9.192;2022-11-04T13:55:15;2.77;;;1.00;;
16731;SDS011;8484;50.904;9.192;2022-11-04T13:58:04;3.97;;;1.00;;
16731;SDS011;8484;50.904;9.192;2022-11-04T14:01:11;3.23;;;1.00;;
16731;SDS011;8484;50.904;9.192;2022-11-04T14:04:24;5.60;;;1.07;;
16731;SDS011;8484;50.904;9.192;2022-11-04T14:07:13;3.67;;;1.00;;
16731;SDS011;8484;50.904;9.192;2022-11-04T14:10:02;1.57;;;0.90;;
16731;SDS011;8484;50.904;9.192;2022-11-04T14:12:48;2.70;;;0.70;;
16731;SDS011;8484;50.904;9.192;2022-11-04T14:15:57;3.27;;;0.83;;
16731;SDS011;8484;50.904;9.192;2022-11-04T14:18:46;3.73;;;1.00;;
16731;SDS011;8484;50.904;9.192;2022-11-04T14:21:33;3.17;;;1.10;;
16731;SDS011;8484;50.904;9.192;2022-11-04T14:25:02;3.37;;;1.10;;
16731;SDS011;8484;50.904;9.192;2022-11-04T14:28:15;4.33;;;1.20;;
16731;SDS011;8484;50.904;9.192;2022-11-04T14:31:10;2.83;;;1.50;;
16731;SDS011;8484;50.904;9.192;2022-11-04T14:33:58;3.00;;;1.40;;
16731;SDS011;8484;50.904;9.192;2022-11-04T14:36:43;2.37;;;1.13;;
16731;SDS011;8484;50.904;9.192;2022-11-04T14:39:37;5.27;;;1.20;;
16731;SDS011;8484;50.904;9.192;2022-11-04T14:45:32;3.73;;;1.23;;
16731;SDS011;8484;50.904;9.192;2022-11-04T14:48:24;4.87;;;1.23;;
16731;SDS011;8484;50.904;9.192;2022-11-04T14:51:17;2.80;;;1.03;;
16731;SDS011;8484;50.904;9.192;2022-11-04T14:54:09;3.00;;;1.30;;
16731;SDS011;8484;50.904;9.192;2022-11-04T14:57:11;3.13;;;1.33;;
16731;SDS011;8484;50.904;9.192;2022-11-04T15:00:05;2.57;;;1.20;;
16731;SDS011;8484;50.904;9.192;2022-11-04T15:03:08;3.70;;;0.83;;
16731;SDS011;8484;50.904;9.192;2022-11-04T15:05:58;5.27;;;0.90;;
16731;SDS011;8484;50.904;9.192;2022-11-04T15:08:46;2.33;;;1.07;;
16731;SDS011;8484;50.904;9.192;2022-11-04T15:11:38;1.83;;;1.10;;
16731;SDS011;8484;50.904;9.192;2022-11-04T15:14:41;3.07;;;1.30;;
16731;SDS011;8484;50.904;9.192;2022-11-04T15:17:28;3.17;;;1.00;;
16731;SDS011;8484;50.904;9.192;2022-11-04T15:20:18;2.10;;;1.03;;
16731;SDS011;8484;50.904;9.192;2022-11-04T15:23:11;3.17;;;1.10;;
16731;SDS011;8484;50.904;9.192;2022-11-04T15:26:01;2.63;;;1.20;;
16731;SDS011;8484;50.904;9.192;2022-11-04T15:28:48;2.63;;;1.43;;
16731;SDS011;8484;50.904;9.192;2022-11-04T15:31:35;2.93;;;1.60;;
16731;SDS011;8484;50.904;9.192;2022-11-04T15:34:23;2.77;;;1.90;;
16731;SDS011;8484;50.904;9.192;2022-11-04T15:37:10;4.60;;;2.80;;
16731;SDS011;8484;50.904;9.192;2022-11-04T15:39:56;2.43;;;1.60;;
16731;SDS011;8484;50.904;9.192;2022-11-04T15:42:42;3.20;;;1.20;;
16731;SDS011;8484;50.904;9.192;2022-11-04T15:45:34;2.40;;;0.97;;
16731;SDS011;8484;50.904;9.192;2022-11-04T15:48:22;3.73;;;1.50;;
16731;SDS011;8484;50.904;9.192;2022-11-04T15:51:12;3.83;;;1.40;;
16731;SDS011;8484;50.904;9.192;2022-11-04T15:54:02;2.80;;;1.40;;
16731;SDS011;8484;50.904;9.192;2022-11-04T15:56:50;2.43;;;1.23;;
16731;SDS011;8484;50.904;9.192;2022-11-04T15:59:38;4.00;;;1.30;;
16731;SDS011;8484;50.904;9.192;2022-11-04T16:02:30;2.07;;;1.20;;
16731;SDS011;8484;50.904;9.192;2022-11-04T16:05:22;3.13;;;1.30;;
16731;SDS011;8484;50.904;9.192;2022-11-04T16:08:18;2.67;;;1.47;;
16731;SDS011;8484;50.904;9.192;2022-11-04T16:11:09;5.47;;;1.60;;
16731;SDS011;8484;50.904;9.192;2022-11-04T16:17:08;4.23;;;2.70;;
16731;SDS011;8484;50.904;9.192;2022-11-04T16:19:55;6.93;;;4.47;;
16731;SDS011;8484;50.904;9.192;2022-11-04T16:22:52;9.03;;;5.13;;
16731;SDS011;8484;50.904;9.192;2022-11-04T16:25:41;7.60;;;4.27;;
16731;SDS011;8484;50.904;9.192;2022-11-04T16:28:27;8.33;;;5.07;;
16731;SDS011;8484;50.904;9.192;2022-11-04T16:31:22;8.20;;;3.27;;
16731;SDS011;8484;50.904;9.192;2022-11-04T16:34:09;5.47;;;2.37;;
16731;SDS011;8484;50.904;9.192;2022-11-04T16:36:57;3.97;;;2.10;;
16731;SDS011;8484;50.904;9.192;2022-11-04T16:39:42;2.10;;;1.50;;
16731;SDS011;8484;50.904;9.192;2022-11-04T16:42:30;2.73;;;1.10;;
16731;SDS011;8484;50.904;9.192;2022-11-04T16:45:17;5.53;;;1.30;;
16731;SDS011;8484;50.904;9.192;2022-11-04T16:48:08;2.67;;;1.50;;
16731;SDS011;8484;50.904;9.192;2022-11-04T16:50:58;2.20;;;1.43;;
16731;SDS011;8484;50.904;9.192;2022-11-04T16:53:46;2.50;;;1.17;;
16731;SDS011;8484;50.904;9.192;2022-11-04T16:56:33;4.60;;;1.50;;
16731;SDS011;8484;50.904;9.192;2022-11-04T16:59:20;2.37;;;1.37;;
16731;SDS011;8484;50.904;9.192;2022-11-04T17:02:16;3.20;;;1.37;;
16731;SDS011;8484;50.904;9.192;2022-11-04T17:05:04;4.33;;;1.67;;
16731;SDS011;8484;50.904;9.192;2022-11-04T17:07:51;3.77;;;1.50;;
16731;SDS011;8484;50.904;9.192;2022-11-04T17:10:36;1.70;;;1.40;;
16731;SDS011;8484;50.904;9.192;2022-11-04T17:13:25;2.30;;;1.57;;
16731;SDS011;8484;50.904;9.192;2022-11-04T17:16:12;3.33;;;1.50;;
16731;SDS011;8484;50.904;9.192;2022-11-04T17:19:04;4.07;;;2.00;;
16731;SDS011;8484;50.904;9.192;2022-11-04T17:21:52;2.40;;;1.50;;
16731;SDS011;8484;50.904;9.192;2022-11-04T17:24:38;2.83;;;1.60;;
16731;SDS011;8484;50.904;9.192;2022-11-04T17:27:24;2.80;;;1.50;;
16731;SDS011;8484;50.904;9.192;2022-11-04T17:30:09;2.13;;;1.60;;
16731;SDS011;8484;50.904;9.192;2022-11-04T17:32:58;4.00;;;1.87;;